Fort Abbas Weather



Fort Abbas's Current Weather

Temprature 38.75o few clouds

few clouds

Rain: 0 %

Min Temprature38.75o
Max Temprature38.75o
Humidity21
Wind Speed4.98 m/h
Sun Rise05:11:04
Sun Set19:11:25
Current Time: 26-Jun-2019 15:36:47
Lat/Lon: 29.19, 72.85




Fort Abbas's Geo Location



Fort Abbas's Weather Forecast

Time Overall Temp Min Temp Max Temp Humidity Wind Speed Rain
26-Jun-2019 (Wed)
17:00:00 few clouds 35.140 35.140 38.750 21 4.98 m/h 0 %
20:00:00 light rain 36.940 36.940 39.647 21 6.49 m/h 69 %
23:00:00 broken clouds 36.540 36.540 38.340 23 6.45 m/h 0 %
27-Jun-2019 (Thu)
02:00:00 clear sky 36.280 36.280 37.179 25 2.91 m/h 0 %
05:00:00 clear sky 35.965 35.965 35.965 36 7.77 m/h 0 %
08:00:00 clear sky 38.550 38.550 38.550 28 7.88 m/h 0 %
11:00:00 clear sky 43.074 43.074 43.074 20 7.3 m/h 0 %
14:00:00 clear sky 45.250 45.250 45.250 15 5.97 m/h 0 %
17:00:00 clear sky 45.580 45.580 45.580 12 5.52 m/h 0 %
20:00:00 broken clouds 39.494 39.494 39.494 20 7.53 m/h 0 %
23:00:00 broken clouds 40.035 40.035 40.035 19 6.17 m/h 0 %
28-Jun-2019 (Fri)
02:00:00 clear sky 37.428 37.428 37.428 25 5.81 m/h 0 %
05:00:00 clear sky 34.128 34.128 34.128 42 8.59 m/h 0 %
08:00:00 clear sky 33.959 33.959 33.959 40 7.98 m/h 0 %
11:00:00 clear sky 39.225 39.225 39.225 28 7.24 m/h 0 %
14:00:00 clear sky 42.931 42.931 42.931 20 5.67 m/h 0 %
17:00:00 clear sky 43.850 43.850 43.850 16 4.93 m/h 0 %
20:00:00 clear sky 41.350 41.350 41.350 19 5.55 m/h 0 %
23:00:00 clear sky 39.172 39.172 39.172 22 6.82 m/h 0 %
29-Jun-2019 (Sat)
02:00:00 clear sky 37.272 37.272 37.272 30 7.42 m/h 0 %
05:00:00 clear sky 33.479 33.479 33.479 46 9.94 m/h 0 %
08:00:00 clear sky 32.997 32.997 32.997 47 9.49 m/h 0 %
11:00:00 clear sky 39.250 39.250 39.250 27 8.7 m/h 0 %
14:00:00 clear sky 43.750 43.750 43.750 16 7.65 m/h 0 %
17:00:00 clear sky 44.391 44.391 44.391 14 6.61 m/h 0 %
20:00:00 clear sky 41.250 41.250 41.250 17 4.85 m/h 0 %
23:00:00 clear sky 38.950 38.950 38.950 22 6.26 m/h 0 %
30-Jun-2019 (Sun)
02:00:00 clear sky 36.956 36.956 36.956 27 6.91 m/h 0 %
05:00:00 clear sky 33.062 33.062 33.062 53 10.27 m/h 0 %
08:00:00 clear sky 33.962 33.962 33.962 48 9.08 m/h 0 %
11:00:00 clear sky 39.618 39.618 39.618 29 8.25 m/h 0 %
14:00:00 clear sky 43.708 43.708 43.708 18 6.5 m/h 0 %
17:00:00 clear sky 44.350 44.350 44.350 15 5.43 m/h 0 %
20:00:00 clear sky 41.450 41.450 41.450 17 4.65 m/h 0 %
23:00:00 clear sky 39.450 39.450 39.450 20 6.2 m/h 0 %
01-Jul-2019 (Mon)
02:00:00 clear sky 36.050 36.050 36.050 38 10.56 m/h 0 %
05:00:00 clear sky 32.435 32.435 32.435 58 10.54 m/h 0 %
08:00:00 clear sky 33.450 33.450 33.450 54 9.33 m/h 0 %
11:00:00 clear sky 39.550 39.550 39.550 32 8.9 m/h 0 %
14:00:00 clear sky 43.750 43.750 43.750 21 6.67 m/h 0 %

Famous Cities (60)